Terminal Aerodrome Forecast
Issued by NWS Boise, ID

Home | Current Version | Previous Version | Text Only | Print | Product List | Glossary On
Versions: 1 2 3 4 5 6 7 8 9 10 11 12 13 14 15 16 17 18 19 20 21 22 23 24 25 26 27
000
FTUS45 KBOI 241201 RRA
TAFBNO
TAF
KBNO 241201Z 2412/2512 19005KT P6SM -RA SCT035 OVC050
     FM241400 16007KT P6SM -RA SCT020 OVC035
      TEMPO 2419/2423 4SM -RA BR SCT015 OVC025
     FM250100 VRB04KT P6SM BKN060=

USA.gov is the U.S. government's official web portal to all federal, state and local government web resources and services.